Isle Royale National Park, MI

8:17 PM EDT op 25 oktober 2014 (GMT -0400)
Hancock: Sylvan Estates | Change Station
CLOSE
Current Station
Persoonlijk weerstation
Location: Hancock, MI
Geometrische hoogte: 917 ft
Nabije weerstations

Hoogte 917 ft 47.14 °N, 88.60 °W | Updated 7 minutes ago

Helder
Helder
50.6 °F
Voelt als 50.6 °F
N
7.0
Wind Variabel Wind van west
Gusts 18.0 mijl/u

Vandaag
Hoog -- | Laag -- °F
--% Kans op neerslag
Gisteren
Hoog -- | Laag -- °F
Precip. -- inches
8:26 AM 6:48 PM
Wassende halvemaan, 5% visible
Druk 29.81 inches
Zicht 10.0 mijlen
Wolken Helder
Dauwpunt 38 °F
Vochtigheid 61%
Neerslag 0.00 inches
Dikte sneeuw Niet beschikbaar.
UV 0 van de 12
Pollen 1.90 van de 12
Luchtkwaliteit Niet beschikbaar.
Flu Activity Sporadic
METAR KCMX 252353Z AUTO 29021G29KT 10SM CLR 10/00 A2980 RMK AO2 PK WND 30031/2324 SLP095 T01000000 10117 20094 51020

More Conditions Fewer Conditions

Druk 29.81 inches
Zicht 10.0 mijlen
Wolken Helder
Dauwpunt 38 °F
Vochtigheid 61%
Neerslag 0.00 inches
Dikte sneeuw Niet beschikbaar.
UV 0 van de 12
Pollen 1.90 van de 12
Luchtkwaliteit Niet beschikbaar.
Flu Activity Sporadic
METAR KCMX 252353Z AUTO 29021G29KT 10SM CLR 10/00 A2980 RMK AO2 PK WND 30031/2324 SLP095 T01000000 10117 20094 51020

More Conditions Fewer Conditions

10-Day Weather Forecast

Almanac

Astronomie

Oct. 25, 2014 Opkomst Ondergang
Werkelijke tijd 8:26 AM EDT 6:48 PM EDT
Burgerlijke schemering 7:55 AM EDT 7:20 PM EDT
Nautische schemering 7:19 AM EDT 7:55 PM EDT
Astronomische schemering 6:44 AM EDT 8:31 PM EDT
Maan 10:10 AM EDT (10/25) 8:06 PM EDT (10/25)
Golflengte van het zichtbare licht 11h 24m
Daglengte
10h 22m
Tomorrow will be 3m 8s shorter.
Wassende halvemaan, 5% of the Moon is Illuminated
Vandaag
Wassende halvemaan
oktober 30
Eerste kwartier
nov 6
Volle maan
nov 14
Laatste kwartier
nov 22
Nieuw

Extremen vandaag

State Highs State Lows

Community

WunderPhotos

Upload Photos

1,765,039 foto’s ge-upload!

Nearby

Dikte sneeuw

Station Depth Geometrische hoogte
Er is geen verse sneeuw gerapporteerd.

Aardbevingen

Stad Distance Mag. Time & Date
No recent earthquake activity has been reported nearby.
Minimum magnitude displayed is 2.5.

Watertemperatuur langs de kust

Plaats Temperatuur
Geen meldingen van stations

Nabije weerstations